Time;durP1;ratioP1;P1;durP2;ratioP2;P2;SDS_P1;SDS_P2;PMS_P1;PMS_P2;Temp;Humidity;BMP_temperature;BMP_pressure;BME280_temperature;BME280_humidity;BME280_pressure;Samples;Min_cycle;Max_cycle;Signal;HPM_P1;HPM_P2
2024/02/07 00:00:14;;;;;;;3.42;1.70;;;;;;;5.41;100.00;92858.84;2119225;27;20049;-83
2024/02/07 00:01:15;;;;;;;2.10;1.90;;;;;;;5.24;100.00;92854.41;2113063;27;20039;-82
2024/02/07 00:02:16;;;;;;;3.28;1.80;;;;;;;5.30;100.00;92856.25;2111216;27;20473;-82
2024/02/07 00:03:18;;;;;;;4.47;1.75;;;;;;;5.34;100.00;92858.88;2116255;27;20104;-82
2024/02/07 00:04:19;;;;;;;3.40;1.88;;;;;;;5.26;100.00;92865.34;2115967;27;20514;-82
2024/02/07 00:05:26;;;;;;;3.67;1.67;;;;;;;5.26;100.00;92855.50;2106027;28;20058;-81
2024/02/07 00:06:27;;;;;;;2.47;1.75;;;;;;;5.41;100.00;92856.19;2113398;27;20023;-82
2024/02/07 00:07:28;;;;;;;4.20;2.45;;;;;;;5.36;100.00;92853.22;1957539;27;22021;-80
2024/02/07 00:08:31;;;;;;;3.92;2.03;;;;;;;5.41;100.00;92850.91;1865304;27;22747;-82
2024/02/07 00:09:33;;;;;;;4.18;2.05;;;;;;;5.42;100.00;92847.09;1864029;27;22399;-82
2024/02/07 00:10:34;;;;;;;2.63;1.63;;;;;;;5.46;100.00;92855.03;1855847;27;21780;-82
2024/02/07 00:11:35;;;;;;;2.45;1.90;;;;;;;5.49;100.00;92847.06;1843559;27;22632;-80
2024/02/07 00:12:36;;;;;;;3.40;1.70;;;;;;;5.43;100.00;92848.59;1900752;27;22147;-81
2024/02/07 00:13:41;;;;;;;3.63;1.80;;;;;;;5.49;100.00;92860.31;1909118;27;21210;-82
2024/02/07 00:14:42;;;;;;;2.75;2.22;;;;;;;5.62;100.00;92852.66;1917780;27;21895;-80
2024/02/07 00:15:44;;;;;;;3.55;1.60;;;;;;;5.42;100.00;92846.34;1876903;28;21534;-83
2024/02/07 00:16:45;;;;;;;2.90;1.75;;;;;;;5.45;100.00;92835.72;1906841;27;21350;-81
2024/02/07 00:17:49;;;;;;;4.35;2.25;;;;;;;5.44;100.00;92839.50;1944827;27;20023;-83
2024/02/07 00:18:50;;;;;;;3.60;1.80;;;;;;;5.50;100.00;92837.97;1962368;27;20035;-83
2024/02/07 00:19:51;;;;;;;3.78;1.88;;;;;;;5.52;100.00;92832.25;2063603;27;20108;-81
2024/02/07 00:20:53;;;;;;;3.22;1.60;;;;;;;5.41;100.00;92831.59;2067281;28;20142;-82
2024/02/07 00:21:54;;;;;;;2.97;1.90;;;;;;;5.50;100.00;92837.97;2089893;27;20184;-81
2024/02/07 00:22:55;;;;;;;3.65;1.80;;;;;;;5.46;100.00;92839.88;2026847;27;22403;-82
2024/02/07 00:23:56;;;;;;;2.50;1.63;;;;;;;5.40;100.00;92830.06;2066702;27;20538;-82
2024/02/07 00:24:57;;;;;;;3.17;2.05;;;;;;;5.45;100.00;92845.56;2082230;27;20480;-81
2024/02/07 00:25:58;;;;;;;3.38;1.95;;;;;;;5.48;100.00;92834.94;2085320;27;20031;-81
2024/02/07 00:27:00;;;;;;;2.65;2.20;;;;;;;5.59;100.00;92832.22;2097431;27;20027;-82
2024/02/07 00:28:00;;;;;;;2.85;2.38;;;;;;;5.71;100.00;92831.75;2030462;27;20142;-81
2024/02/07 00:29:02;;;;;;;5.22;2.00;;;;;;;5.70;100.00;92834.75;2033768;28;20981;-82
2024/02/07 00:30:05;;;;;;;4.50;2.50;;;;;;;5.75;100.00;92827.16;2037531;28;20035;-81
2024/02/07 00:31:07;;;;;;;3.45;1.70;;;;;;;5.68;100.00;92818.50;2056228;27;20418;-82
2024/02/07 00:32:08;;;;;;;4.53;1.70;;;;;;;5.55;100.00;92826.94;2069873;27;20193;-80
2024/02/07 00:33:09;;;;;;;3.78;1.83;;;;;;;5.63;100.00;92824.97;2065397;27;20031;-82
2024/02/07 00:34:10;;;;;;;4.97;2.20;;;;;;;5.70;100.00;92824.16;2082776;27;21676;-81
2024/02/07 00:35:11;;;;;;;5.05;2.17;;;;;;;5.84;100.00;92829.38;2077730;27;20027;-81
2024/02/07 00:36:12;;;;;;;7.03;2.90;;;;;;;5.87;100.00;92817.94;2082312;27;20071;-79
2024/02/07 00:37:13;;;;;;;4.03;1.90;;;;;;;5.89;100.00;92823.63;2100740;27;20066;-81
2024/02/07 00:38:14;;;;;;;5.60;2.10;;;;;;;5.87;100.00;92820.59;2118083;27;20031;-81
2024/02/07 00:39:15;;;;;;;3.45;2.08;;;;;;;5.87;100.00;92823.25;2117771;27;20031;-81
2024/02/07 00:40:17;;;;;;;2.95;2.13;;;;;;;6.08;100.00;92816.28;2119383;27;20067;-82
2024/02/07 00:41:22;;;;;;;4.25;2.10;;;;;;;5.82;100.00;92811.19;2111937;28;20028;-81
2024/02/07 00:42:23;;;;;;;3.15;2.10;;;;;;;5.84;100.00;92826.72;2110875;27;20106;-81
2024/02/07 00:43:24;;;;;;;4.43;2.10;;;;;;;6.12;100.00;92811.69;2115724;27;20379;-79
2024/02/07 00:44:27;;;;;;;3.95;2.10;;;;;;;6.20;100.00;92816.53;2109323;28;20118;-82
2024/02/07 00:45:29;;;;;;;2.85;2.20;;;;;;;6.29;100.00;92816.81;2098915;27;20054;-82
2024/02/07 00:46:31;;;;;;;4.07;2.30;;;;;;;6.08;100.00;92803.78;2105336;28;20030;-80
2024/02/07 00:47:32;;;;;;;4.70;2.13;;;;;;;6.26;100.00;92812.31;2121684;27;20155;-81
2024/02/07 00:48:34;;;;;;;2.80;2.08;;;;;;;6.23;100.00;92815.00;2117750;27;20040;-81
2024/02/07 00:49:35;;;;;;;4.68;2.00;;;;;;;6.10;100.00;92806.78;2113511;28;20024;-81
2024/02/07 00:50:36;;;;;;;4.50;2.40;;;;;;;6.14;100.00;92798.78;2101158;28;20085;-81
2024/02/07 00:51:37;;;;;;;7.47;1.95;;;;;;;6.20;100.00;92802.53;2109454;27;20073;-82
2024/02/07 00:52:38;;;;;;;4.85;1.90;;;;;;;6.14;100.00;92809.41;2117961;27;20113;-81
2024/02/07 00:53:39;;;;;;;4.95;2.28;;;;;;;6.15;100.00;92806.38;2113166;28;20032;-80
2024/02/07 00:54:43;;;;;;;2.92;2.00;;;;;;;6.01;100.00;92809.13;2113596;28;20035;-82
2024/02/07 00:55:45;;;;;;;7.03;2.28;;;;;;;5.97;100.00;92808.41;2110319;27;20434;-82
2024/02/07 00:56:46;;;;;;;4.90;2.13;;;;;;;6.06;100.00;92808.72;2109196;28;20079;-81
2024/02/07 00:57:48;;;;;;;2.60;2.05;;;;;;;6.00;100.00;92804.97;2106836;28;20151;-84
2024/02/07 00:58:49;;;;;;;5.93;2.25;;;;;;;5.91;100.00;92791.41;2106579;28;20081;-81
2024/02/07 00:59:50;;;;;;;2.83;1.73;;;;;;;6.07;100.00;92801.53;2112573;28;20054;-81
2024/02/07 01:00:55;;;;;;;2.58;1.88;;;;;;;6.17;100.00;92798.75;2102357;28;20126;-80
2024/02/07 01:01:56;;;;;;;2.97;2.17;;;;;;;6.07;100.00;92799.63;2114295;27;20116;-81
2024/02/07 01:02:57;;;;;;;5.50;2.13;;;;;;;6.31;100.00;92797.84;2125088;27;20152;-82
2024/02/07 01:03:58;;;;;;;5.45;2.40;;;;;;;6.09;100.00;92791.25;2118729;27;20108;-81
2024/02/07 01:05:03;;;;;;;5.35;2.30;;;;;;;6.14;100.00;92799.53;2101632;28;20032;-81
2024/02/07 01:06:04;;;;;;;4.68;2.00;;;;;;;6.30;100.00;92791.03;2116940;27;20106;-82
2024/02/07 01:07:07;;;;;;;3.75;1.98;;;;;;;6.18;100.00;92788.88;2116521;27;20048;-82
2024/02/07 01:08:09;;;;;;;5.40;2.08;;;;;;;6.26;100.00;92790.31;2115334;27;20103;-83
2024/02/07 01:09:10;;;;;;;5.38;2.53;;;;;;;6.23;100.00;92785.78;2123886;27;20041;-83
2024/02/07 01:10:11;;;;;;;4.53;2.20;;;;;;;6.51;100.00;92785.47;2120843;27;20035;-81
2024/02/07 01:11:12;;;;;;;5.10;2.38;;;;;;;6.37;100.00;92790.97;2126099;27;20083;-82
2024/02/07 01:12:13;;;;;;;3.63;2.15;;;;;;;6.33;100.00;92784.94;2117653;27;20478;-82
2024/02/07 01:13:14;;;;;;;2.67;2.22;;;;;;;6.19;100.00;92787.72;2117837;27;20027;-83
2024/02/07 01:14:15;;;;;;;6.70;2.33;;;;;;;6.12;100.00;92780.63;2126235;27;20019;-82
2024/02/07 01:15:17;;;;;;;4.80;2.25;;;;;;;6.13;100.00;92786.66;2117764;27;20095;-81
2024/02/07 01:16:20;;;;;;;4.32;2.20;;;;;;;6.19;100.00;92785.84;2120068;27;20027;-84
2024/02/07 01:17:21;;;;;;;3.35;2.20;;;;;;;6.03;100.00;92775.03;2109184;28;20020;-81
2024/02/07 01:18:22;;;;;;;3.75;2.22;;;;;;;6.18;100.00;92786.97;2113438;28;20035;-80
2024/02/07 01:19:24;;;;;;;3.45;2.22;;;;;;;6.20;100.00;92782.03;2117432;27;20034;-82
2024/02/07 01:20:25;;;;;;;2.22;1.90;;;;;;;6.24;100.00;92779.34;2111936;27;20031;-81
2024/02/07 01:21:26;;;;;;;5.00;2.45;;;;;;;6.17;100.00;92780.16;2110733;28;20471;-83
2024/02/07 01:22:27;;;;;;;4.15;2.20;;;;;;;6.20;100.00;92778.66;2116549;27;20027;-83
2024/02/07 01:23:28;;;;;;;4.30;2.08;;;;;;;6.28;100.00;92772.88;2118069;27;20111;-83
2024/02/07 01:24:29;;;;;;;5.32;2.03;;;;;;;6.41;100.00;92781.06;2109248;28;20028;-80
2024/02/07 01:25:30;;;;;;;3.63;2.38;;;;;;;6.51;100.00;92774.13;2108735;28;20028;-81
2024/02/07 01:26:35;;;;;;;4.10;2.45;;;;;;;6.44;100.00;92769.63;2100907;28;20418;-83
2024/02/07 01:27:36;;;;;;;5.65;2.22;;;;;;;6.41;100.00;92773.09;2112922;27;20097;-82
2024/02/07 01:28:37;;;;;;;3.25;2.08;;;;;;;6.49;100.00;92766.53;2112886;28;20504;-82
2024/02/07 01:29:38;;;;;;;3.95;2.20;;;;;;;6.35;100.00;92761.41;2112904;28;20027;-82
2024/02/07 01:30:39;;;;;;;4.07;1.75;;;;;;;6.45;100.00;92765.06;2126975;27;20482;-82
2024/02/07 01:31:41;;;;;;;4.25;2.10;;;;;;;6.33;100.00;92758.41;2127505;27;20444;-82
2024/02/07 01:32:43;;;;;;;3.55;2.08;;;;;;;6.28;100.00;92762.25;2117236;27;20023;-81
2024/02/07 01:33:44;;;;;;;4.18;2.20;;;;;;;6.35;100.00;92764.06;2124394;27;20458;-80
2024/02/07 01:34:45;;;;;;;4.07;2.20;;;;;;;6.55;100.00;92764.22;2117728;27;20081;-83
2024/02/07 01:35:46;;;;;;;3.58;2.10;;;;;;;6.31;100.00;92756.13;2112162;27;20028;-81
2024/02/07 01:36:47;;;;;;;6.22;2.35;;;;;;;6.31;100.00;92758.78;2117058;27;20027;-81
2024/02/07 01:37:48;;;;;;;5.05;2.10;;;;;;;6.31;100.00;92766.00;2117604;27;20141;-83
2024/02/07 01:38:50;;;;;;;5.95;2.50;;;;;;;6.31;100.00;92771.31;2119385;27;20023;-82
2024/02/07 01:39:51;;;;;;;3.30;2.22;;;;;;;6.24;100.00;92769.50;2126251;27;20027;-83
2024/02/07 01:40:57;;;;;;;5.57;2.17;;;;;;;6.28;100.00;92767.56;2117624;27;20046;-81
2024/02/07 01:41:58;;;;;;;3.13;1.90;;;;;;;6.23;100.00;92765.34;2121361;27;20027;-82
2024/02/07 01:43:01;;;;;;;2.50;2.08;;;;;;;6.27;100.00;92775.91;2121801;27;20505;-84
2024/02/07 01:44:02;;;;;;;10.93;2.47;;;;;;;6.32;100.00;92764.84;2112725;28;20396;-82
2024/02/07 01:45:30;;;;;;;4.20;1.98;;;;;;;6.35;100.00;92760.66;2113518;27;20020;-83
2024/02/07 01:46:32;;;;;;;4.60;1.95;;;;;;;6.21;100.00;92766.88;2119936;27;20530;-80
2024/02/07 01:47:33;;;;;;;5.25;2.28;;;;;;;6.19;100.00;92766.50;2118065;27;20505;-82
2024/02/07 01:48:34;;;;;;;4.47;1.75;;;;;;;6.11;100.00;92763.19;2126028;27;20075;-82
2024/02/07 01:49:35;;;;;;;3.58;2.45;;;;;;;6.21;100.00;92761.56;2117633;27;20025;-83
2024/02/07 01:50:38;;;;;;;2.60;1.75;;;;;;;6.38;100.00;92759.88;2109197;28;20031;-82
2024/02/07 01:51:40;;;;;;;2.83;1.90;;;;;;;6.13;100.00;92758.22;2113192;28;20055;-82
2024/02/07 01:52:44;;;;;;;5.43;2.42;;;;;;;6.04;100.00;92757.94;2109030;28;20104;-83
2024/02/07 01:53:48;;;;;;;5.20;2.45;;;;;;;6.13;100.00;92749.53;2111271;27;20086;-82
2024/02/07 01:54:49;;;;;;;3.88;2.20;;;;;;;6.08;100.00;92737.44;2117319;27;20055;-80
2024/02/07 01:55:51;;;;;;;4.68;2.65;;;;;;;6.21;100.00;92738.44;2111490;28;20038;-82
2024/02/07 01:56:53;;;;;;;5.40;2.30;;;;;;;6.04;100.00;92732.16;2109201;27;20115;-84
2024/02/07 01:57:55;;;;;;;5.18;2.05;;;;;;;5.95;100.00;92723.94;2105383;28;20039;-82
2024/02/07 01:58:56;;;;;;;3.30;2.17;;;;;;;5.94;100.00;92727.00;2101557;28;20058;-83
2024/02/07 01:59:57;;;;;;;5.60;2.67;;;;;;;5.86;100.00;92734.22;2104084;28;20027;-81
2024/02/07 02:01:00;;;;;;;2.85;2.05;;;;;;;5.84;100.00;92727.81;2108082;28;20019;-81
2024/02/07 02:02:03;;;;;;;3.42;2.58;;;;;;;5.93;100.00;92730.78;2109041;28;20032;-83
2024/02/07 02:03:04;;;;;;;4.60;2.33;;;;;;;6.11;100.00;92736.66;2109331;27;20616;-81
2024/02/07 02:04:05;;;;;;;2.85;2.28;;;;;;;6.05;100.00;92728.34;2116557;27;20023;-84
2024/02/07 02:05:06;;;;;;;3.35;2.03;;;;;;;5.99;100.00;92724.66;2107353;27;20535;-82
2024/02/07 02:06:08;;;;;;;4.43;2.00;;;;;;;6.07;100.00;92720.03;2105873;28;20067;-82
2024/02/07 02:07:09;;;;;;;3.53;1.95;;;;;;;5.95;100.00;92723.19;2125192;27;20054;-83
2024/02/07 02:08:10;;;;;;;7.78;2.65;;;;;;;6.13;100.00;92725.63;2114490;28;20114;-79
2024/02/07 02:09:11;;;;;;;3.33;2.30;;;;;;;6.15;100.00;92726.75;2111942;28;20023;-83
2024/02/07 02:10:13;;;;;;;3.85;2.15;;;;;;;6.27;100.00;92712.19;2108914;28;20059;-82
2024/02/07 02:11:18;;;;;;;3.65;2.00;;;;;;;6.23;100.00;92711.50;2110327;28;20132;-83
2024/02/07 02:12:19;;;;;;;4.43;2.22;;;;;;;6.03;100.00;92712.09;2110375;27;20050;-82
2024/02/07 02:13:20;;;;;;;4.47;2.10;;;;;;;6.10;100.00;92707.84;2113346;28;20023;-82
2024/02/07 02:14:21;;;;;;;6.30;2.20;;;;;;;6.09;100.00;92720.38;2113312;27;20058;-82
2024/02/07 02:15:23;;;;;;;6.10;2.67;;;;;;;5.96;100.00;92706.88;2125986;27;20034;-81
2024/02/07 02:16:24;;;;;;;3.70;1.95;;;;;;;6.09;100.00;92706.34;2117833;27;20047;-83
2024/02/07 02:17:25;;;;;;;4.25;2.25;;;;;;;6.16;100.00;92700.97;2108446;28;20480;-83
2024/02/07 02:18:26;;;;;;;6.00;2.58;;;;;;;6.31;100.00;92704.94;2117084;27;20031;-80
2024/02/07 02:19:27;;;;;;;3.15;2.17;;;;;;;6.07;100.00;92700.69;2111437;28;20805;-80
2024/02/07 02:20:28;;;;;;;6.80;2.20;;;;;;;6.11;100.00;92699.50;2113163;28;20035;-81
2024/02/07 02:21:36;;;;;;;4.30;2.35;;;;;;;6.21;100.00;92700.53;2108140;28;20085;-81
2024/02/07 02:22:40;;;;;;;3.13;2.05;;;;;;;6.08;100.00;92697.66;2111056;27;20036;-82
2024/02/07 02:24:08;;;;;;;4.15;2.40;;;;;;;6.08;100.00;92694.25;2121191;27;20031;-83
2024/02/07 02:25:12;;;;;;;4.22;2.10;;;;;;;6.11;100.00;92698.75;2125248;27;20025;-81
2024/02/07 02:26:36;;;;;;;4.28;2.20;;;;;;;6.05;100.00;92701.84;2112278;28;20559;-81
2024/02/07 02:27:37;;;;;;;4.43;2.30;;;;;;;6.09;100.00;92714.31;2120936;27;20065;-82
2024/02/07 02:29:07;;;;;;;2.88;1.77;;;;;;;6.37;100.00;92716.66;2123347;27;20113;-83
2024/02/07 02:30:11;;;;;;;6.45;2.38;;;;;;;6.40;100.00;92712.41;2113746;28;20083;-84
2024/02/07 02:31:14;;;;;;;3.65;2.15;;;;;;;6.31;100.00;92705.69;2102227;28;20032;-81
2024/02/07 02:32:16;;;;;;;5.07;2.30;;;;;;;6.16;100.00;92703.63;2101478;28;20035;-81
2024/02/07 02:33:18;;;;;;;4.90;2.65;;;;;;;6.07;100.00;92711.31;2110836;28;20024;-81
2024/02/07 02:34:20;;;;;;;5.70;2.30;;;;;;;6.25;100.00;92709.94;2108889;28;20026;-82
2024/02/07 02:35:22;;;;;;;3.90;2.40;;;;;;;6.24;100.00;92713.00;2108069;27;20472;-83
2024/02/07 02:36:23;;;;;;;6.25;2.08;;;;;;;6.08;100.00;92712.81;2124371;27;20460;-82
2024/02/07 02:37:25;;;;;;;4.90;2.22;;;;;;;6.05;100.00;92701.84;2116672;28;20027;-83
2024/02/07 02:38:27;;;;;;;3.92;2.03;;;;;;;6.34;100.00;92704.16;2102415;28;20493;-79
2024/02/07 02:39:29;;;;;;;2.63;2.38;;;;;;;6.47;100.00;92705.13;2108756;28;20020;-80
2024/02/07 02:40:31;;;;;;;1.85;1.75;;;;;;;6.23;100.00;92703.53;2112287;28;20027;-82
2024/02/07 02:41:32;;;;;;;6.15;1.98;;;;;;;6.43;100.00;92695.72;2113136;28;20059;-81
2024/02/07 02:42:33;;;;;;;7.90;2.05;;;;;;;6.44;100.00;92694.56;2112411;28;20054;-84
2024/02/07 02:43:37;;;;;;;3.40;2.00;;;;;;;6.38;100.00;92691.59;2104532;28;20059;-81
2024/02/07 02:44:38;;;;;;;5.38;2.15;;;;;;;6.38;100.00;92696.16;2104836;28;20043;-82
2024/02/07 02:45:39;;;;;;;4.53;2.05;;;;;;;6.34;100.00;92696.19;2104543;28;20400;-80
2024/02/07 02:46:40;;;;;;;3.67;2.20;;;;;;;6.37;100.00;92699.97;2109071;28;20019;-82
2024/02/07 02:47:41;;;;;;;3.55;2.10;;;;;;;6.42;100.00;92697.63;2116845;28;20053;-80
2024/02/07 02:48:42;;;;;;;4.03;2.20;;;;;;;6.44;100.00;92678.63;2116713;28;20039;-83
2024/02/07 02:49:43;;;;;;;6.28;2.20;;;;;;;6.31;100.00;92695.06;2109538;28;20027;-84
2024/02/07 02:50:45;;;;;;;6.60;2.03;;;;;;;6.17;100.00;92684.66;2108706;28;20056;-82
2024/02/07 02:51:48;;;;;;;5.72;2.45;;;;;;;6.20;100.00;92686.50;2118734;27;20096;-80
2024/02/07 02:52:49;;;;;;;3.10;2.33;;;;;;;6.17;100.00;92682.00;2111151;28;20424;-80
2024/02/07 02:53:51;;;;;;;7.05;2.13;;;;;;;6.29;100.00;92686.03;2116890;28;20109;-80
2024/02/07 02:54:52;;;;;;;3.67;2.08;;;;;;;6.09;100.00;92679.81;2104567;28;20555;-81
2024/02/07 02:55:53;;;;;;;7.38;2.70;;;;;;;6.14;100.00;92684.69;2117093;28;20035;-80
2024/02/07 02:56:59;;;;;;;11.43;2.50;;;;;;;6.11;100.00;92691.56;2112903;28;20032;-83
2024/02/07 02:58:00;;;;;;;3.22;2.53;;;;;;;6.10;100.00;92676.75;2114675;27;20034;-81
2024/02/07 02:59:05;;;;;;;5.07;2.05;;;;;;;5.97;100.00;92665.94;2117277;28;20115;-81
2024/02/07 03:00:07;;;;;;;3.20;2.13;;;;;;;6.19;100.00;92663.78;2120673;27;20027;-83
2024/02/07 03:01:09;;;;;;;4.40;2.03;;;;;;;6.33;100.00;92667.41;2115614;28;20024;-81
2024/02/07 03:02:11;;;;;;;4.20;2.33;;;;;;;6.29;100.00;92673.50;2124921;27;20050;-83
2024/02/07 03:03:12;;;;;;;3.30;2.17;;;;;;;6.45;100.00;92664.97;2124945;27;20031;-80
2024/02/07 03:04:15;;;;;;;8.25;2.72;;;;;;;6.34;100.00;92676.88;2123331;27;20464;-82
2024/02/07 03:06:58;;;;;;;5.97;2.30;;;;;;;6.42;100.00;92660.44;2091686;28;20039;-81
2024/02/07 03:08:15;;;;;;;4.38;2.20;;;;;;;6.36;100.00;92662.03;2094485;28;20458;-81
2024/02/07 03:09:26;;;;;;;4.25;2.50;;;;;;;6.28;100.00;92660.63;2087127;28;20037;-82
2024/02/07 03:10:27;;;;;;;3.03;2.08;;;;;;;6.37;100.00;92652.94;2072509;28;20104;-80
2024/02/07 03:11:29;;;;;;;4.20;2.40;;;;;;;6.15;100.00;92659.69;2071094;28;20112;-82
2024/02/07 03:12:31;;;;;;;5.53;2.50;;;;;;;6.20;100.00;92657.31;2087847;28;20036;-83
2024/02/07 03:13:34;;;;;;;3.90;2.60;;;;;;;6.30;100.00;92661.72;2116857;27;20023;-83
2024/02/07 03:14:35;;;;;;;7.22;2.75;;;;;;;6.16;100.00;92648.66;2130147;27;20083;-82
2024/02/07 03:15:36;;;;;;;5.10;2.28;;;;;;;6.15;100.00;92646.41;2126161;27;20023;-81
2024/02/07 03:16:37;;;;;;;6.53;2.53;;;;;;;6.22;100.00;92656.91;2117654;28;20511;-80
2024/02/07 03:17:38;;;;;;;6.43;2.42;;;;;;;6.14;100.00;92653.59;2113335;28;20050;-82
2024/02/07 03:18:39;;;;;;;5.93;2.38;;;;;;;6.18;100.00;92651.66;2112932;28;20027;-82
2024/02/07 03:19:40;;;;;;;8.48;2.45;;;;;;;6.26;100.00;92636.38;2112738;28;20035;-81
2024/02/07 03:20:41;;;;;;;2.65;2.20;;;;;;;6.07;100.00;92637.78;2126704;27;20029;-80
2024/02/07 03:21:44;;;;;;;3.47;1.95;;;;;;;6.05;100.00;92640.06;2125976;27;20103;-82
2024/02/07 03:22:46;;;;;;;6.43;2.25;;;;;;;6.13;100.00;92632.78;2107735;28;20047;-82
2024/02/07 03:23:47;;;;;;;6.30;2.25;;;;;;;6.21;100.00;92644.81;2110370;27;20023;-81
2024/02/07 03:24:48;;;;;;;5.15;2.58;;;;;;;6.16;100.00;92639.94;2116778;28;20104;-82
2024/02/07 03:25:49;;;;;;;3.72;2.20;;;;;;;6.17;100.00;92647.50;2125489;27;20034;-81
2024/02/07 03:26:51;;;;;;;4.20;2.30;;;;;;;6.16;100.00;92638.03;2117010;28;20028;-81
2024/02/07 03:27:52;;;;;;;3.53;2.00;;;;;;;6.11;100.00;92633.19;2107612;28;20035;-82
2024/02/07 03:28:52;;;;;;;7.63;3.08;;;;;;;6.21;100.00;92642.91;2112545;28;20089;-83
2024/02/07 03:29:53;;;;;;;4.60;2.42;;;;;;;6.07;100.00;92639.69;2124231;27;20103;-81
2024/02/07 03:30:54;;;;;;;5.97;2.53;;;;;;;6.07;100.00;92634.38;2127108;27;20030;-82
2024/02/07 03:31:55;;;;;;;5.00;2.47;;;;;;;6.05;100.00;92629.44;2117015;27;20031;-81
2024/02/07 03:32:56;;;;;;;5.38;2.60;;;;;;;6.11;100.00;92622.56;2118644;27;20031;-81
2024/02/07 03:33:58;;;;;;;5.13;2.72;;;;;;;5.99;100.00;92625.75;2119084;27;20100;-83
2024/02/07 03:34:59;;;;;;;9.45;2.83;;;;;;;5.98;100.00;92611.75;2126181;27;20417;-82
2024/02/07 03:35:59;;;;;;;5.47;2.38;;;;;;;5.93;100.00;92620.13;2109706;28;20034;-81
2024/02/07 03:37:00;;;;;;;6.43;2.42;;;;;;;5.89;100.00;92613.34;2105848;28;20478;-82
2024/02/07 03:38:02;;;;;;;4.90;2.70;;;;;;;6.15;100.00;92617.97;2114457;28;20408;-81
2024/02/07 03:39:07;;;;;;;5.00;2.13;;;;;;;6.31;100.00;92620.00;2112215;28;20464;-84
2024/02/07 03:40:12;;;;;;;6.32;2.95;;;;;;;6.17;100.00;92625.53;2111211;27;20425;-80
2024/02/07 03:41:14;;;;;;;9.18;2.85;;;;;;;6.08;100.00;92625.25;2119194;27;20037;-81
2024/02/07 03:42:16;;;;;;;5.25;2.17;;;;;;;6.08;100.00;92619.94;2119845;27;20022;-81
2024/02/07 03:43:20;;;;;;;7.70;2.33;;;;;;;6.28;100.00;92626.88;2114008;28;20502;-81
2024/02/07 03:44:21;;;;;;;5.00;2.80;;;;;;;6.30;100.00;92623.81;2127035;27;20023;-80
2024/02/07 03:45:24;;;;;;;5.82;2.78;;;;;;;6.23;100.00;92619.38;2118374;27;20380;-81
2024/02/07 03:46:25;;;;;;;4.70;2.40;;;;;;;6.15;100.00;92617.22;2104876;27;20030;-80
2024/02/07 03:47:26;;;;;;;4.30;2.47;;;;;;;6.10;100.00;92615.72;2105760;28;20631;-81
2024/02/07 03:48:28;;;;;;;3.47;2.33;;;;;;;6.25;100.00;92622.38;2113093;27;20028;-81
2024/02/07 03:49:29;;;;;;;4.25;2.50;;;;;;;6.19;100.00;92617.91;2119712;27;20045;-81
2024/02/07 03:50:31;;;;;;;3.70;2.17;;;;;;;6.24;100.00;92618.22;2109112;27;20035;-82
2024/02/07 03:51:35;;;;;;;4.88;2.55;;;;;;;6.06;100.00;92630.97;2110840;28;20027;-82
2024/02/07 03:52:42;;;;;;;3.25;2.28;;;;;;;6.17;100.00;92625.53;2114545;27;20535;-82
2024/02/07 03:53:44;;;;;;;5.07;2.45;;;;;;;6.11;100.00;92627.13;2115972;27;20019;-81
2024/02/07 03:54:49;;;;;;;5.28;2.78;;;;;;;6.17;100.00;92623.63;2112865;28;20043;-81
2024/02/07 03:55:50;;;;;;;3.92;2.20;;;;;;;6.08;100.00;92622.59;2102912;28;20085;-82
2024/02/07 03:56:54;;;;;;;4.65;2.50;;;;;;;6.03;100.00;92615.84;2108379;27;20092;-83
2024/02/07 03:57:55;;;;;;;7.40;2.97;;;;;;;6.03;100.00;92629.84;2109916;28;20093;-83
2024/02/07 03:58:57;;;;;;;7.38;2.67;;;;;;;6.07;100.00;92618.47;2128215;27;20023;-80
2024/02/07 03:59:59;;;;;;;6.22;2.58;;;;;;;6.21;100.00;92620.91;2128348;27;20031;-80
2024/02/07 04:01:00;;;;;;;5.78;2.55;;;;;;;6.26;100.00;92602.63;2112744;28;20028;-81
2024/02/07 04:02:01;;;;;;;5.80;2.65;;;;;;;6.23;100.00;92595.50;2121742;27;20558;-83
2024/02/07 04:03:02;;;;;;;5.15;2.63;;;;;;;6.23;100.00;92611.41;2124534;27;20031;-80
2024/02/07 04:04:05;;;;;;;4.47;2.80;;;;;;;6.24;100.00;92614.81;2117468;27;20075;-82
2024/02/07 04:05:11;;;;;;;4.00;2.50;;;;;;;6.19;100.00;92612.59;2118623;27;20473;-80
2024/02/07 04:06:12;;;;;;;5.55;2.80;;;;;;;6.44;100.00;92615.66;2109244;27;20383;-83
2024/02/07 04:07:13;;;;;;;10.38;2.53;;;;;;;6.40;100.00;92608.91;2110186;27;20040;-81
2024/02/07 04:08:14;;;;;;;5.38;2.42;;;;;;;6.30;100.00;92597.28;2111210;28;20049;-80
2024/02/07 04:09:18;;;;;;;4.72;2.30;;;;;;;6.26;100.00;92596.59;2101066;28;20063;-83
2024/02/07 04:10:19;;;;;;;7.60;2.63;;;;;;;6.13;100.00;92604.34;2103600;28;20027;-83
2024/02/07 05:16:12;;;;;;;8.70;2.60;;;;;;;6.63;100.00;92574.44;2117971;27;20054;-84
2024/02/07 05:17:19;;;;;;;7.13;2.63;;;;;;;6.52;100.00;92574.56;2126121;27;20067;-82
2024/02/07 05:18:20;;;;;;;8.43;2.97;;;;;;;6.68;100.00;92562.59;2126228;27;20033;-82
2024/02/07 05:19:21;;;;;;;7.55;2.92;;;;;;;6.69;100.00;92583.44;2117629;27;20189;-84
2024/02/07 05:20:22;;;;;;;7.50;2.80;;;;;;;6.71;100.00;92577.69;2108890;28;20032;-82
2024/02/07 05:21:23;;;;;;;9.38;3.00;;;;;;;6.82;100.00;92571.06;2117870;27;20023;-82
2024/02/07 05:22:24;;;;;;;5.80;2.80;;;;;;;6.70;100.00;92569.00;2119087;27;20084;-83
2024/02/07 05:23:25;;;;;;;4.55;2.30;;;;;;;6.72;100.00;92572.00;2110211;28;20056;-81
2024/02/07 05:24:27;;;;;;;7.78;2.53;;;;;;;6.72;100.00;92577.31;2112410;28;20035;-81
2024/02/07 05:25:30;;;;;;;7.88;2.75;;;;;;;6.44;100.00;92573.19;2108807;28;20503;-81
2024/02/07 05:26:35;;;;;;;4.45;2.45;;;;;;;6.68;100.00;92576.63;2103609;27;20028;-83
2024/02/07 05:27:36;;;;;;;6.18;3.05;;;;;;;6.54;100.00;92580.25;2099112;28;20533;-82
2024/02/07 05:28:37;;;;;;;7.25;2.78;;;;;;;6.62;100.00;92578.22;2108666;28;20066;-81
2024/02/07 05:29:38;;;;;;;8.70;2.92;;;;;;;6.56;100.00;92577.19;2120733;27;20038;-82
2024/02/07 05:30:40;;;;;;;4.72;2.35;;;;;;;6.49;100.00;92582.59;2116988;27;20042;-81
2024/02/07 05:31:41;;;;;;;5.53;2.80;;;;;;;6.52;100.00;92582.53;2108077;28;20028;-82
2024/02/07 05:32:44;;;;;;;6.13;2.55;;;;;;;6.45;100.00;92569.41;2117338;27;20402;-82
2024/02/07 05:33:45;;;;;;;10.65;3.00;;;;;;;6.66;100.00;92573.59;2108187;27;20032;-80
2024/02/07 05:34:45;;;;;;;5.20;2.50;;;;;;;6.77;100.00;92582.16;2111619;27;20035;-82
2024/02/07 05:35:46;;;;;;;6.45;2.67;;;;;;;6.74;100.00;92582.22;2107243;28;20163;-82
2024/02/07 05:36:47;;;;;;;4.88;2.30;;;;;;;6.63;100.00;92582.41;2110189;27;20029;-83
2024/02/07 05:37:49;;;;;;;3.90;2.53;;;;;;;6.68;100.00;92575.88;2112667;28;20031;-83
2024/02/07 05:38:50;;;;;;;5.28;2.58;;;;;;;6.51;100.00;92577.66;2108922;28;20150;-81
2024/02/07 05:39:51;;;;;;;8.18;2.45;;;;;;;6.60;100.00;92579.78;2107370;28;20468;-82
2024/02/07 05:40:52;;;;;;;6.97;2.90;;;;;;;6.60;100.00;92577.88;2105163;28;20093;-82
2024/02/07 05:41:53;;;;;;;6.38;2.92;;;;;;;6.51;100.00;92572.34;2109360;27;20595;-82
2024/02/07 05:42:54;;;;;;;4.55;2.75;;;;;;;6.52;100.00;92568.53;2120558;27;20111;-83
2024/02/07 05:43:55;;;;;;;5.95;2.30;;;;;;;6.68;100.00;92573.97;2106858;28;20063;-83
2024/02/07 05:44:55;;;;;;;6.47;2.65;;;;;;;6.77;100.00;92568.13;2109091;27;20034;-83
2024/02/07 05:45:56;;;;;;;5.40;2.63;;;;;;;6.72;100.00;92564.03;2121135;27;20023;-83
2024/02/07 05:46:58;;;;;;;3.53;2.17;;;;;;;6.62;100.00;92567.59;2113191;27;20047;-81
2024/02/07 05:48:00;;;;;;;7.45;3.17;;;;;;;6.49;100.00;92567.41;2106569;28;20037;-82
2024/02/07 05:49:01;;;;;;;6.72;2.60;;;;;;;6.53;100.00;92575.31;2112010;27;20376;-82
2024/02/07 05:50:02;;;;;;;6.22;2.78;;;;;;;6.61;100.00;92566.09;2115350;27;20027;-83
2024/02/07 05:51:04;;;;;;;6.03;2.78;;;;;;;6.69;100.00;92572.06;2105246;28;20361;-82
2024/02/07 05:52:05;;;;;;;6.60;2.55;;;;;;;6.63;100.00;92573.66;2108779;28;20084;-81
2024/02/07 05:53:06;;;;;;;4.93;2.60;;;;;;;6.72;100.00;92552.66;2096394;28;20020;-82
2024/02/07 05:54:07;;;;;;;10.65;2.30;;;;;;;6.89;100.00;92559.59;2104834;28;20074;-83
2024/02/07 05:55:09;;;;;;;5.97;2.45;;;;;;;6.70;100.00;92557.63;2115256;27;20038;-82
2024/02/07 05:56:10;;;;;;;5.43;2.50;;;;;;;6.67;100.00;92553.88;2115641;27;20065;-82
2024/02/07 05:57:11;;;;;;;9.35;2.78;;;;;;;6.69;100.00;92564.84;2110732;28;20015;-82
2024/02/07 05:58:12;;;;;;;7.85;2.85;;;;;;;6.73;100.00;92552.25;2110910;28;20061;-82
2024/02/07 05:59:13;;;;;;;6.80;2.75;;;;;;;6.58;100.00;92545.66;2108910;27;20550;-83